sensor_id;sensor_type;location;lat;lon;timestamp;P1;durP1;ratioP1;P2;durP2;ratioP2
22861;SDS011;11598;50.652;6.172;2023-12-07T00:02:50;120.63;;;26.15;;
22861;SDS011;11598;50.652;6.172;2023-12-07T00:12:50;165.57;;;29.48;;
22861;SDS011;11598;50.652;6.172;2023-12-07T00:22:50;164.43;;;29.35;;
22861;SDS011;11598;50.652;6.172;2023-12-07T00:32:51;120.05;;;26.02;;
22861;SDS011;11598;50.652;6.172;2023-12-07T00:42:51;161.43;;;26.23;;
22861;SDS011;11598;50.652;6.172;2023-12-07T00:52:52;194.10;;;28.10;;
22861;SDS011;11598;50.652;6.172;2023-12-07T01:02:53;186.00;;;28.15;;
22861;SDS011;11598;50.652;6.172;2023-12-07T01:12:53;227.38;;;28.63;;
22861;SDS011;11598;50.652;6.172;2023-12-07T01:22:53;48.97;;;17.52;;
22861;SDS011;11598;50.652;6.172;2023-12-07T01:32:54;193.63;;;25.92;;
22861;SDS011;11598;50.652;6.172;2023-12-07T01:42:55;217.50;;;26.25;;
22861;SDS011;11598;50.652;6.172;2023-12-07T01:53:01;163.40;;;22.70;;
22861;SDS011;11598;50.652;6.172;2023-12-07T02:03:03;59.10;;;16.50;;
22861;SDS011;11598;50.652;6.172;2023-12-07T02:13:04;42.13;;;14.88;;
22861;SDS011;11598;50.652;6.172;2023-12-07T02:23:07;55.58;;;15.55;;
22861;SDS011;11598;50.652;6.172;2023-12-07T02:33:08;35.35;;;12.90;;
22861;SDS011;11598;50.652;6.172;2023-12-07T02:43:09;27.63;;;11.40;;
22861;SDS011;11598;50.652;6.172;2023-12-07T02:53:10;28.58;;;9.48;;
22861;SDS011;11598;50.652;6.172;2023-12-07T03:03:10;55.72;;;13.45;;
22861;SDS011;11598;50.652;6.172;2023-12-07T03:13:11;31.73;;;11.15;;
22861;SDS011;11598;50.652;6.172;2023-12-07T03:23:11;32.72;;;11.27;;
22861;SDS011;11598;50.652;6.172;2023-12-07T03:33:11;27.23;;;10.57;;
22861;SDS011;11598;50.652;6.172;2023-12-07T03:43:12;34.05;;;12.45;;
22861;SDS011;11598;50.652;6.172;2023-12-07T03:53:13;42.10;;;14.48;;
22861;SDS011;11598;50.652;6.172;2023-12-07T04:03:13;37.75;;;13.90;;
22861;SDS011;11598;50.652;6.172;2023-12-07T04:13:13;33.58;;;13.70;;
22861;SDS011;11598;50.652;6.172;2023-12-07T04:23:14;49.08;;;17.20;;
22861;SDS011;11598;50.652;6.172;2023-12-07T04:33:14;127.50;;;22.35;;
22861;SDS011;11598;50.652;6.172;2023-12-07T04:43:14;90.85;;;20.88;;
22861;SDS011;11598;50.652;6.172;2023-12-07T04:53:15;52.78;;;16.55;;
22861;SDS011;11598;50.652;6.172;2023-12-07T05:03:15;75.40;;;18.85;;
22861;SDS011;11598;50.652;6.172;2023-12-07T05:13:16;42.00;;;14.50;;
22861;SDS011;11598;50.652;6.172;2023-12-07T05:23:16;32.80;;;13.20;;
22861;SDS011;11598;50.652;6.172;2023-12-07T05:33:17;35.55;;;14.48;;
22861;SDS011;11598;50.652;6.172;2023-12-07T05:43:19;36.10;;;13.13;;
22861;SDS011;11598;50.652;6.172;2023-12-07T05:53:20;37.97;;;14.00;;
22861;SDS011;11598;50.652;6.172;2023-12-07T06:03:20;36.10;;;15.20;;
22861;SDS011;11598;50.652;6.172;2023-12-07T06:13:20;62.35;;;21.48;;
22861;SDS011;11598;50.652;6.172;2023-12-07T06:23:21;34.85;;;12.07;;
22861;SDS011;11598;50.652;6.172;2023-12-07T06:33:21;31.17;;;14.77;;
22861;SDS011;11598;50.652;6.172;2023-12-07T06:43:22;29.17;;;12.70;;
22861;SDS011;11598;50.652;6.172;2023-12-07T06:53:22;34.67;;;12.15;;
22861;SDS011;11598;50.652;6.172;2023-12-07T07:03:23;35.88;;;11.50;;
22861;SDS011;11598;50.652;6.172;2023-12-07T07:13:24;42.47;;;11.73;;
22861;SDS011;11598;50.652;6.172;2023-12-07T07:23:25;30.02;;;10.35;;
22861;SDS011;11598;50.652;6.172;2023-12-07T07:33:25;31.30;;;11.13;;
22861;SDS011;11598;50.652;6.172;2023-12-07T07:43:25;29.15;;;11.10;;
22861;SDS011;11598;50.652;6.172;2023-12-07T07:53:26;29.08;;;10.50;;
22861;SDS011;11598;50.652;6.172;2023-12-07T08:03:26;26.67;;;9.80;;
22861;SDS011;11598;50.652;6.172;2023-12-07T08:13:26;30.77;;;11.00;;
22861;SDS011;11598;50.652;6.172;2023-12-07T08:23:27;30.90;;;10.70;;
22861;SDS011;11598;50.652;6.172;2023-12-07T08:33:28;23.77;;;8.98;;
22861;SDS011;11598;50.652;6.172;2023-12-07T08:43:28;27.33;;;10.70;;
22861;SDS011;11598;50.652;6.172;2023-12-07T08:53:30;27.20;;;10.37;;
22861;SDS011;11598;50.652;6.172;2023-12-07T09:03:31;23.15;;;9.30;;
22861;SDS011;11598;50.652;6.172;2023-12-07T09:13:31;25.70;;;9.55;;
22861;SDS011;11598;50.652;6.172;2023-12-07T09:23:32;24.70;;;8.90;;
22861;SDS011;11598;50.652;6.172;2023-12-07T09:33:32;23.70;;;9.55;;
22861;SDS011;11598;50.652;6.172;2023-12-07T09:43:33;23.95;;;10.07;;
22861;SDS011;11598;50.652;6.172;2023-12-07T09:53:33;25.83;;;9.77;;
22861;SDS011;11598;50.652;6.172;2023-12-07T10:03:34;25.35;;;9.68;;
22861;SDS011;11598;50.652;6.172;2023-12-07T10:13:35;31.23;;;10.02;;
22861;SDS011;11598;50.652;6.172;2023-12-07T10:23:37;24.63;;;8.40;;
22861;SDS011;11598;50.652;6.172;2023-12-07T10:33:38;25.17;;;8.40;;
22861;SDS011;11598;50.652;6.172;2023-12-07T10:43:43;17.15;;;8.43;;
22861;SDS011;11598;50.652;6.172;2023-12-07T10:53:47;24.67;;;8.90;;
22861;SDS011;11598;50.652;6.172;2023-12-07T11:03:50;20.80;;;7.95;;
22861;SDS011;11598;50.652;6.172;2023-12-07T11:13:53;16.98;;;7.35;;
22861;SDS011;11598;50.652;6.172;2023-12-07T11:24:02;17.95;;;7.97;;
22861;SDS011;11598;50.652;6.172;2023-12-07T11:34:06;19.50;;;7.43;;
22861;SDS011;11598;50.652;6.172;2023-12-07T11:44:13;14.18;;;7.28;;
22861;SDS011;11598;50.652;6.172;2023-12-07T11:54:14;14.57;;;6.72;;
22861;SDS011;11598;50.652;6.172;2023-12-07T12:04:15;11.27;;;5.03;;
22861;SDS011;11598;50.652;6.172;2023-12-07T12:14:17;11.80;;;5.43;;
22861;SDS011;11598;50.652;6.172;2023-12-07T12:24:17;11.48;;;5.35;;
22861;SDS011;11598;50.652;6.172;2023-12-07T12:34:20;9.27;;;4.68;;
22861;SDS011;11598;50.652;6.172;2023-12-07T12:44:21;12.85;;;5.22;;
22861;SDS011;11598;50.652;6.172;2023-12-07T12:54:21;9.83;;;4.30;;
22861;SDS011;11598;50.652;6.172;2023-12-07T13:04:22;8.57;;;4.60;;
22861;SDS011;11598;50.652;6.172;2023-12-07T13:14:22;10.18;;;4.55;;
22861;SDS011;11598;50.652;6.172;2023-12-07T13:24:22;12.05;;;4.90;;
22861;SDS011;11598;50.652;6.172;2023-12-07T13:34:23;11.13;;;5.05;;
22861;SDS011;11598;50.652;6.172;2023-12-07T13:44:26;11.32;;;4.53;;
22861;SDS011;11598;50.652;6.172;2023-12-07T13:54:26;11.32;;;5.40;;
22861;SDS011;11598;50.652;6.172;2023-12-07T14:04:26;7.43;;;4.18;;
22861;SDS011;11598;50.652;6.172;2023-12-07T14:14:27;7.38;;;3.80;;
22861;SDS011;11598;50.652;6.172;2023-12-07T14:24:27;7.55;;;3.72;;
22861;SDS011;11598;50.652;6.172;2023-12-07T14:34:28;7.77;;;3.50;;
22861;SDS011;11598;50.652;6.172;2023-12-07T14:44:29;6.43;;;3.60;;
22861;SDS011;11598;50.652;6.172;2023-12-07T14:54:29;9.98;;;3.60;;
22861;SDS011;11598;50.652;6.172;2023-12-07T15:04:30;8.10;;;3.55;;
22861;SDS011;11598;50.652;6.172;2023-12-07T15:14:31;7.50;;;2.90;;
22861;SDS011;11598;50.652;6.172;2023-12-07T15:24:32;6.22;;;2.40;;
22861;SDS011;11598;50.652;6.172;2023-12-07T15:34:32;7.00;;;2.90;;
22861;SDS011;11598;50.652;6.172;2023-12-07T15:44:33;6.17;;;2.60;;
22861;SDS011;11598;50.652;6.172;2023-12-07T15:54:33;5.50;;;2.40;;
22861;SDS011;11598;50.652;6.172;2023-12-07T16:04:34;6.25;;;2.80;;
22861;SDS011;11598;50.652;6.172;2023-12-07T16:14:35;7.10;;;2.63;;
22861;SDS011;11598;50.652;6.172;2023-12-07T16:24:36;5.90;;;2.72;;
22861;SDS011;11598;50.652;6.172;2023-12-07T16:34:36;6.65;;;2.80;;
22861;SDS011;11598;50.652;6.172;2023-12-07T16:44:39;6.13;;;2.53;;
22861;SDS011;11598;50.652;6.172;2023-12-07T16:54:40;5.30;;;2.70;;
22861;SDS011;11598;50.652;6.172;2023-12-07T17:04:41;4.63;;;2.20;;
22861;SDS011;11598;50.652;6.172;2023-12-07T17:14:41;6.10;;;2.28;;
22861;SDS011;11598;50.652;6.172;2023-12-07T17:24:42;3.45;;;1.40;;
22861;SDS011;11598;50.652;6.172;2023-12-07T17:34:43;5.22;;;1.83;;
22861;SDS011;11598;50.652;6.172;2023-12-07T17:44:44;4.25;;;1.52;;
22861;SDS011;11598;50.652;6.172;2023-12-07T17:54:44;5.13;;;2.03;;
22861;SDS011;11598;50.652;6.172;2023-12-07T18:04:45;5.15;;;1.90;;
22861;SDS011;11598;50.652;6.172;2023-12-07T18:14:45;4.82;;;1.92;;
22861;SDS011;11598;50.652;6.172;2023-12-07T18:24:45;5.00;;;1.95;;
22861;SDS011;11598;50.652;6.172;2023-12-07T18:34:46;4.50;;;1.85;;
22861;SDS011;11598;50.652;6.172;2023-12-07T18:44:46;5.32;;;2.50;;
22861;SDS011;11598;50.652;6.172;2023-12-07T18:54:46;4.15;;;1.98;;
22861;SDS011;11598;50.652;6.172;2023-12-07T19:04:47;5.85;;;2.22;;
22861;SDS011;11598;50.652;6.172;2023-12-07T19:14:48;5.55;;;2.45;;
22861;SDS011;11598;50.652;6.172;2023-12-07T19:24:49;5.45;;;2.42;;
22861;SDS011;11598;50.652;6.172;2023-12-07T19:34:50;5.25;;;2.80;;
22861;SDS011;11598;50.652;6.172;2023-12-07T19:44:50;5.60;;;3.03;;
22861;SDS011;11598;50.652;6.172;2023-12-07T19:54:50;3.72;;;1.85;;
22861;SDS011;11598;50.652;6.172;2023-12-07T20:04:51;5.28;;;2.65;;
22861;SDS011;11598;50.652;6.172;2023-12-07T20:14:51;5.22;;;2.47;;
22861;SDS011;11598;50.652;6.172;2023-12-07T20:24:52;6.57;;;2.45;;
22861;SDS011;11598;50.652;6.172;2023-12-07T20:34:52;4.78;;;2.35;;
22861;SDS011;11598;50.652;6.172;2023-12-07T20:44:52;5.05;;;2.58;;
22861;SDS011;11598;50.652;6.172;2023-12-07T20:54:53;8.02;;;3.72;;
22861;SDS011;11598;50.652;6.172;2023-12-07T21:04:53;5.20;;;2.33;;
22861;SDS011;11598;50.652;6.172;2023-12-07T21:14:53;5.55;;;2.15;;
22861;SDS011;11598;50.652;6.172;2023-12-07T21:24:54;6.28;;;2.75;;
22861;SDS011;11598;50.652;6.172;2023-12-07T21:34:56;4.70;;;2.33;;
22861;SDS011;11598;50.652;6.172;2023-12-07T21:44:57;7.22;;;3.13;;
22861;SDS011;11598;50.652;6.172;2023-12-07T21:54:57;5.78;;;2.42;;
22861;SDS011;11598;50.652;6.172;2023-12-07T22:04:57;6.75;;;3.38;;
22861;SDS011;11598;50.652;6.172;2023-12-07T22:14:58;5.05;;;2.47;;
22861;SDS011;11598;50.652;6.172;2023-12-07T22:24:58;5.68;;;2.53;;
22861;SDS011;11598;50.652;6.172;2023-12-07T22:34:58;5.45;;;2.45;;
22861;SDS011;11598;50.652;6.172;2023-12-07T22:44:59;7.05;;;2.70;;
22861;SDS011;11598;50.652;6.172;2023-12-07T22:54:59;6.55;;;2.92;;
22861;SDS011;11598;50.652;6.172;2023-12-07T23:05:00;6.60;;;2.78;;
22861;SDS011;11598;50.652;6.172;2023-12-07T23:15:00;7.90;;;3.20;;
22861;SDS011;11598;50.652;6.172;2023-12-07T23:25:00;7.35;;;3.33;;
22861;SDS011;11598;50.652;6.172;2023-12-07T23:35:01;6.18;;;3.17;;
22861;SDS011;11598;50.652;6.172;2023-12-07T23:45:01;6.50;;;3.33;;
22861;SDS011;11598;50.652;6.172;2023-12-07T23:55:01;5.63;;;2.55;;
